createdAt,value
2019-01-21T00:02:42.689Z,12.1
2019-01-21T00:07:39.478Z,11.6
2019-01-21T00:12:36.172Z,11.5
2019-01-21T00:17:32.776Z,11.9
2019-01-21T00:22:29.416Z,11.4
2019-01-21T00:27:26.258Z,11.4
2019-01-21T00:32:22.545Z,11.3
2019-01-21T00:37:18.833Z,11.7
2019-01-21T00:42:15.374Z,11.6
2019-01-21T00:47:12.400Z,11.4
2019-01-21T00:52:08.523Z,11.5
2019-01-21T00:57:05.096Z,11.5
2019-01-21T01:02:01.372Z,11.4
2019-01-21T01:06:58.174Z,11.4
2019-01-21T01:11:55.090Z,11.3
2019-01-21T01:16:51.286Z,11.3
2019-01-21T01:21:48.050Z,11.2
2019-01-21T01:26:44.838Z,11.2
2019-01-21T01:31:41.215Z,11
2019-01-21T01:36:37.877Z,11.1
2019-01-21T01:41:34.203Z,11
2019-01-21T01:46:31.089Z,11
2019-01-21T01:51:28.113Z,10.9
2019-01-21T01:56:24.711Z,10.9
2019-01-21T02:01:21.383Z,10.8
2019-01-21T02:06:18.203Z,10.8
2019-01-21T02:11:14.005Z,10.8
2019-01-21T02:16:10.860Z,10.7
2019-01-21T02:21:07.168Z,10.7
2019-01-21T02:26:03.916Z,10.6
2019-01-21T02:31:00.545Z,10.1
2019-01-21T02:35:57.238Z,10.6
2019-01-21T02:40:53.901Z,10
2019-01-21T02:45:50.606Z,10.5
2019-01-21T02:50:47.354Z,10.4
2019-01-21T02:55:44.053Z,10.4
2019-01-21T03:00:40.826Z,10.4
2019-01-21T03:05:37.421Z,10.3
2019-01-21T03:10:33.954Z,10.3
2019-01-21T03:15:30.150Z,10.2
2019-01-21T03:20:27.051Z,10.2
2019-01-21T03:25:23.847Z,10.2
2019-01-21T03:30:20.175Z,10.1
2019-01-21T03:35:16.843Z,10.1
2019-01-21T03:40:13.865Z,10.1
2019-01-21T03:45:10.520Z,10
2019-01-21T03:50:06.753Z,10
2019-01-21T03:55:03.363Z,9.9
2019-01-21T03:59:59.411Z,9.7
2019-01-21T04:04:56.194Z,9.9
2019-01-21T04:09:52.856Z,9.8
2019-01-21T04:14:49.352Z,9.4
2019-01-21T04:19:45.513Z,9.8
2019-01-21T04:24:42.358Z,9.4
2019-01-21T04:29:38.728Z,9.7
2019-01-21T04:34:35.737Z,9.4
2019-01-21T04:39:31.713Z,9.6
2019-01-21T04:44:28.506Z,9.6
2019-01-21T04:49:25.187Z,9.4
2019-01-21T04:54:21.749Z,9.5
2019-01-21T04:59:18.525Z,9.3
2019-01-21T05:04:15.216Z,9.4
2019-01-21T05:09:12.023Z,9.4
2019-01-21T05:14:08.527Z,9.4
2019-01-21T05:19:05.227Z,9.4
2019-01-21T05:24:01.913Z,9.3
2019-01-21T05:28:58.624Z,9.3
2019-01-21T05:33:55.442Z,9.3
2019-01-21T05:38:51.846Z,9.2
2019-01-21T05:43:48.562Z,9.2
2019-01-21T05:48:48.936Z,9.1
2019-01-21T05:53:45.245Z,9.1
2019-01-21T05:58:41.948Z,9.1
2019-01-21T06:03:38.808Z,9.1
2019-01-21T06:08:35.256Z,9
2019-01-21T06:13:32.378Z,8.8
2019-01-21T06:18:29.162Z,9
2019-01-21T06:23:25.901Z,8.9
2019-01-21T06:28:22.683Z,8.9
2019-01-21T06:33:19.696Z,8.9
2019-01-21T06:38:16.468Z,8.8
2019-01-21T06:43:13.231Z,8.8
2019-01-21T06:48:10.161Z,8.8
2019-01-21T06:53:06.799Z,8.7
2019-01-21T06:58:03.530Z,8.7
2019-01-21T07:03:00.355Z,8.7
2019-01-21T07:07:57.097Z,8.6
2019-01-21T07:12:53.773Z,8.6
2019-01-21T07:17:50.721Z,8.6
2019-01-21T07:22:47.295Z,8.6
2019-01-21T07:27:44.382Z,8.5
2019-01-21T07:32:40.690Z,8.5
2019-01-21T07:37:37.689Z,8.5
2019-01-21T07:42:34.400Z,8.4
2019-01-21T07:47:31.046Z,8.4
2019-01-21T07:52:27.775Z,8.4
2019-01-21T07:57:24.012Z,8.3
2019-01-21T08:02:20.759Z,8.3
2019-01-21T08:07:17.298Z,8.3
2019-01-21T08:12:14.223Z,8.3
2019-01-21T08:17:10.932Z,8.2
2019-01-21T08:22:07.639Z,8.2
2019-01-21T08:27:04.415Z,8.2
2019-01-21T08:32:00.930Z,8.2
2019-01-21T08:36:57.717Z,8.1
2019-01-21T08:41:53.886Z,8.1
2019-01-21T08:46:50.064Z,8.1
2019-01-21T08:51:46.743Z,8.1
2019-01-21T08:56:43.376Z,8.1
2019-01-21T09:01:40.178Z,8
2019-01-21T09:06:36.505Z,8
2019-01-21T09:11:33.214Z,8
2019-01-21T09:16:29.903Z,8
2019-01-21T09:21:26.808Z,7.9
2019-01-21T09:26:23.708Z,7.9
2019-01-21T09:31:20.873Z,7.9
2019-01-21T09:36:17.601Z,7.9
2019-01-21T09:41:14.205Z,7.8
2019-01-21T09:46:10.848Z,7.8
2019-01-21T09:51:07.515Z,7.6
2019-01-21T09:56:04.230Z,7.8
2019-01-21T10:01:00.968Z,7.8
2019-01-21T10:05:57.823Z,7.7
2019-01-21T10:10:54.531Z,7.7
2019-01-21T10:15:51.347Z,7.7
2019-01-21T10:20:48.160Z,7.7
2019-01-21T10:25:44.805Z,7.7
2019-01-21T10:30:41.497Z,7.7
2019-01-21T10:35:38.282Z,7.6
2019-01-21T10:40:35.180Z,7.6
2019-01-21T10:45:31.848Z,7.6
2019-01-21T10:50:28.680Z,7.6
2019-01-21T10:55:25.477Z,7.6
2019-01-21T11:00:22.384Z,7.6
2019-01-21T11:05:19.253Z,7.6
2019-01-21T11:10:15.790Z,7.5
2019-01-21T11:15:12.099Z,7.5
2019-01-21T11:20:08.969Z,7.5
2019-01-21T11:25:05.322Z,7.5
2019-01-21T11:30:01.903Z,7.5
2019-01-21T11:34:58.022Z,7.5
2019-01-21T11:39:54.638Z,7.5
2019-01-21T11:44:51.478Z,7.5
2019-01-21T11:49:48.207Z,7.4
2019-01-21T11:54:44.922Z,7.4
2019-01-21T11:59:43.075Z,7.4
2019-01-21T12:04:39.605Z,7.4
2019-01-21T12:09:36.445Z,7.4
2019-01-21T12:14:33.326Z,7.4
2019-01-21T12:19:30.234Z,7.4
2019-01-21T12:24:26.931Z,7.4
2019-01-21T12:29:23.724Z,7.4
2019-01-21T12:34:20.517Z,7.4
2019-01-21T12:39:17.026Z,7.3
2019-01-21T12:44:14.027Z,7.3
2019-01-21T12:49:10.719Z,7.3
2019-01-21T12:54:07.689Z,6.9
2019-01-21T12:59:04.535Z,7.3
2019-01-21T13:04:01.215Z,7.3
2019-01-21T13:08:57.851Z,7.3
2019-01-21T13:13:54.993Z,7.3
2019-01-21T13:18:51.562Z,7.3
2019-01-21T13:23:48.125Z,7.3
2019-01-21T13:28:44.999Z,7.3
2019-01-21T13:33:41.703Z,7.3
2019-01-21T13:38:38.684Z,7.3
2019-01-21T13:43:35.905Z,7.2
2019-01-21T13:48:32.832Z,7.2
2019-01-21T13:53:28.985Z,7.2
2019-01-21T13:58:25.897Z,7.2
2019-01-21T14:03:22.874Z,7.2
2019-01-21T14:08:19.729Z,7.2
2019-01-21T14:13:16.112Z,7.2
2019-01-21T14:18:12.642Z,7.2
2019-01-21T14:23:09.216Z,7.2
2019-01-21T14:28:06.070Z,7.2
2019-01-21T14:33:02.914Z,7.2
2019-01-21T14:37:59.715Z,7.2
2019-01-21T14:42:56.633Z,7.1
2019-01-21T14:47:53.174Z,7.1
2019-01-21T14:52:50.082Z,7.1
2019-01-21T14:57:46.830Z,7.1
2019-01-21T15:02:43.949Z,7.1
2019-01-21T15:07:39.976Z,6.7
2019-01-21T15:12:36.778Z,7.1
2019-01-21T15:17:33.385Z,7.1
2019-01-21T15:22:29.930Z,7.1
2019-01-21T15:27:27.832Z,7.1
2019-01-21T15:32:25.088Z,7.1
2019-01-21T15:37:21.807Z,7
2019-01-21T15:42:19.029Z,7
2019-01-21T15:47:16.102Z,7
2019-01-21T15:52:13.058Z,7
2019-01-21T15:57:09.882Z,7
2019-01-21T16:02:06.714Z,7
2019-01-21T16:07:03.505Z,7
2019-01-21T16:12:00.228Z,6.9
2019-01-21T16:16:56.548Z,6.9
2019-01-21T16:21:53.334Z,6.9
2019-01-21T16:26:50.092Z,6.9
2019-01-21T16:31:46.911Z,6.9
2019-01-21T16:36:43.486Z,6.9
2019-01-21T16:41:39.989Z,6.9
2019-01-21T16:46:38.180Z,6.8
2019-01-21T16:51:34.523Z,6.3
2019-01-21T16:56:31.286Z,6.8
2019-01-21T17:01:28.260Z,6.8
2019-01-21T17:06:25.096Z,6.3
2019-01-21T17:11:22.396Z,6.8
2019-01-21T17:16:18.788Z,6.8
2019-01-21T17:21:15.789Z,6.7
2019-01-21T17:26:12.358Z,6.7
2019-01-21T17:31:09.113Z,6.7
2019-01-21T17:36:05.746Z,6.5
2019-01-21T17:41:02.451Z,6.7
2019-01-21T17:45:58.845Z,6.7
2019-01-21T17:50:55.276Z,6.6
2019-01-21T17:55:52.116Z,6.6
2019-01-21T18:00:48.834Z,6.6
2019-01-21T18:05:45.227Z,6.6
2019-01-21T18:10:42.132Z,5.6
2019-01-21T18:15:38.402Z,6.6
2019-01-21T18:20:35.235Z,6.5
2019-01-21T18:25:33.049Z,6.5
2019-01-21T18:30:30.037Z,6.5
2019-01-21T18:35:26.865Z,6.5
2019-01-21T18:40:23.979Z,6.5
2019-01-21T18:45:23.609Z,6.4
2019-01-21T18:50:20.757Z,6.4
2019-01-21T18:55:17.578Z,6.4
2019-01-21T19:00:14.435Z,6.4
2019-01-21T19:05:11.135Z,6.4
2019-01-21T19:10:07.666Z,6.4
2019-01-21T19:15:04.296Z,6.2
2019-01-21T19:20:01.178Z,6.1
2019-01-21T19:24:57.972Z,6.3
2019-01-21T19:29:54.362Z,6.3
2019-01-21T19:34:51.212Z,6.3
2019-01-21T19:39:48.037Z,5.8
2019-01-21T19:44:44.668Z,6.2
2019-01-21T19:49:41.557Z,6.2
2019-01-21T19:54:38.023Z,6.2
2019-01-21T19:59:34.955Z,6.2
2019-01-21T20:04:31.145Z,6.2
2019-01-21T20:09:27.342Z,6.1
2019-01-21T20:14:24.016Z,6.1
2019-01-21T20:19:20.529Z,6.1
2019-01-21T20:24:17.246Z,6.1
2019-01-21T20:29:13.954Z,6.1
2019-01-21T20:34:10.877Z,5.9
2019-01-21T20:39:07.130Z,6
2019-01-21T20:44:03.619Z,6
2019-01-21T20:49:00.496Z,6
2019-01-21T20:53:57.247Z,6
2019-01-21T20:58:54.059Z,6
2019-01-21T21:03:50.645Z,5.9
2019-01-21T21:08:47.302Z,5.9
2019-01-21T21:13:43.780Z,5.9
2019-01-21T21:18:40.604Z,5.9
2019-01-21T21:23:37.371Z,5.9
2019-01-21T21:28:34.007Z,5.9
2019-01-21T21:33:30.854Z,5.8
2019-01-21T21:38:27.598Z,5.8
2019-01-21T21:43:24.238Z,5.8
2019-01-21T21:48:21.156Z,4.9
2019-01-21T21:53:17.849Z,5.8
2019-01-21T21:58:14.701Z,5.3
2019-01-21T22:03:11.310Z,5.8
2019-01-21T22:08:07.873Z,5.7
2019-01-21T22:13:04.742Z,5.7
2019-01-21T22:18:01.171Z,5.7
2019-01-21T22:22:57.793Z,5.7
2019-01-21T22:27:53.889Z,5.7
2019-01-21T22:32:50.688Z,5.7
2019-01-21T22:37:47.108Z,5.7
2019-01-21T22:42:43.921Z,5.6
2019-01-21T22:47:40.478Z,5.6
2019-01-21T22:52:41.786Z,5.6
2019-01-21T22:57:37.803Z,5.6
2019-01-21T23:02:34.012Z,5.6
2019-01-21T23:07:30.630Z,5.6
2019-01-21T23:12:27.264Z,5.6
2019-01-21T23:17:24.178Z,5.5
2019-01-21T23:22:20.938Z,5.3
2019-01-21T23:27:17.365Z,5.5
2019-01-21T23:32:14.335Z,5.5
2019-01-21T23:37:10.950Z,5.5
2019-01-21T23:42:07.475Z,5.5
2019-01-21T23:47:04.330Z,5.4
2019-01-21T23:52:01.089Z,5.4
2019-01-21T23:56:57.299Z,5.4
